sensor_id;sensor_type;location;lat;lon;timestamp;temperature;humidity
12849;DHT22;6493;50.928;7.172;2022-12-18T00:03:40;-7.80;59.80
12849;DHT22;6493;50.928;7.172;2022-12-18T00:08:46;-7.80;59.80
12849;DHT22;6493;50.928;7.172;2022-12-18T00:13:51;-7.80;59.80
12849;DHT22;6493;50.928;7.172;2022-12-18T00:18:57;-7.80;59.80
12849;DHT22;6493;50.928;7.172;2022-12-18T00:24:00;-7.90;59.70
12849;DHT22;6493;50.928;7.172;2022-12-18T00:29:06;-7.80;59.70
12849;DHT22;6493;50.928;7.172;2022-12-18T00:34:12;-7.80;59.80
12849;DHT22;6493;50.928;7.172;2022-12-18T00:39:16;-7.80;59.60
12849;DHT22;6493;50.928;7.172;2022-12-18T00:44:20;-7.80;59.50
12849;DHT22;6493;50.928;7.172;2022-12-18T00:49:27;-7.80;59.50
12849;DHT22;6493;50.928;7.172;2022-12-18T00:54:30;-7.90;59.50
12849;DHT22;6493;50.928;7.172;2022-12-18T00:59:35;-7.90;59.70
12849;DHT22;6493;50.928;7.172;2022-12-18T01:04:40;-7.80;59.80
12849;DHT22;6493;50.928;7.172;2022-12-18T01:09:43;-7.80;59.80
12849;DHT22;6493;50.928;7.172;2022-12-18T01:14:47;-7.80;59.60
12849;DHT22;6493;50.928;7.172;2022-12-18T01:19:53;-7.70;59.40
12849;DHT22;6493;50.928;7.172;2022-12-18T01:24:56;-7.80;59.30
12849;DHT22;6493;50.928;7.172;2022-12-18T01:30:00;-7.80;59.40
12849;DHT22;6493;50.928;7.172;2022-12-18T01:35:07;-7.80;59.50
12849;DHT22;6493;50.928;7.172;2022-12-18T01:40:11;-7.90;59.30
12849;DHT22;6493;50.928;7.172;2022-12-18T01:45:24;-7.90;59.40
12849;DHT22;6493;50.928;7.172;2022-12-18T01:50:32;-7.90;59.50
12849;DHT22;6493;50.928;7.172;2022-12-18T01:55:40;-7.90;59.80
12849;DHT22;6493;50.928;7.172;2022-12-18T02:00:45;-7.90;59.90
12849;DHT22;6493;50.928;7.172;2022-12-18T02:05:54;-7.80;59.90
12849;DHT22;6493;50.928;7.172;2022-12-18T02:11:06;-7.80;59.80
12849;DHT22;6493;50.928;7.172;2022-12-18T02:16:20;-7.80;59.70
12849;DHT22;6493;50.928;7.172;2022-12-18T02:21:34;-7.80;59.70
12849;DHT22;6493;50.928;7.172;2022-12-18T02:26:44;-7.90;59.60
12849;DHT22;6493;50.928;7.172;2022-12-18T02:31:52;-7.80;59.60
12849;DHT22;6493;50.928;7.172;2022-12-18T02:36:58;-7.80;59.60
12849;DHT22;6493;50.928;7.172;2022-12-18T02:42:06;-7.80;59.60
12849;DHT22;6493;50.928;7.172;2022-12-18T02:47:11;-7.90;59.60
12849;DHT22;6493;50.928;7.172;2022-12-18T02:52:24;-7.80;59.80
12849;DHT22;6493;50.928;7.172;2022-12-18T02:57:34;-7.80;59.80
12849;DHT22;6493;50.928;7.172;2022-12-18T03:02:45;-7.80;59.60
12849;DHT22;6493;50.928;7.172;2022-12-18T03:07:55;-7.90;59.40
12849;DHT22;6493;50.928;7.172;2022-12-18T03:13:08;-7.90;60.30
12849;DHT22;6493;50.928;7.172;2022-12-18T03:18:17;-7.90;59.80
12849;DHT22;6493;50.928;7.172;2022-12-18T03:23:25;-7.90;59.80
12849;DHT22;6493;50.928;7.172;2022-12-18T03:28:44;-7.90;60.00
12849;DHT22;6493;50.928;7.172;2022-12-18T03:35:29;-7.90;60.20
12849;DHT22;6493;50.928;7.172;2022-12-18T03:42:08;-7.80;60.20
12849;DHT22;6493;50.928;7.172;2022-12-18T03:48:54;-7.80;60.10
12849;DHT22;6493;50.928;7.172;2022-12-18T03:55:34;-7.80;59.90
12849;DHT22;6493;50.928;7.172;2022-12-18T04:02:14;-7.80;59.60
12849;DHT22;6493;50.928;7.172;2022-12-18T04:08:54;-7.90;59.40
12849;DHT22;6493;50.928;7.172;2022-12-18T04:15:34;-8.00;59.50
12849;DHT22;6493;50.928;7.172;2022-12-18T04:22:13;-8.00;59.80
12849;DHT22;6493;50.928;7.172;2022-12-18T04:29:17;-8.00;60.10
12849;DHT22;6493;50.928;7.172;2022-12-18T04:35:55;-8.10;59.80
12849;DHT22;6493;50.928;7.172;2022-12-18T04:42:33;-8.10;59.90
12849;DHT22;6493;50.928;7.172;2022-12-18T04:49:11;-8.10;60.00
12849;DHT22;6493;50.928;7.172;2022-12-18T04:55:48;-8.10;60.00
12849;DHT22;6493;50.928;7.172;2022-12-18T05:02:25;-8.10;60.10
12849;DHT22;6493;50.928;7.172;2022-12-18T05:09:04;-8.10;60.20
12849;DHT22;6493;50.928;7.172;2022-12-18T05:15:41;-8.10;60.30
12849;DHT22;6493;50.928;7.172;2022-12-18T05:22:18;-8.10;60.20
12849;DHT22;6493;50.928;7.172;2022-12-18T05:28:57;-8.10;61.00
12849;DHT22;6493;50.928;7.172;2022-12-18T05:35:34;-8.10;60.20
12849;DHT22;6493;50.928;7.172;2022-12-18T05:42:11;-8.00;60.30
12849;DHT22;6493;50.928;7.172;2022-12-18T05:48:49;-8.10;60.00
12849;DHT22;6493;50.928;7.172;2022-12-18T05:55:26;-8.10;59.70
12849;DHT22;6493;50.928;7.172;2022-12-18T06:02:03;-8.10;59.60
12849;DHT22;6493;50.928;7.172;2022-12-18T06:08:42;-8.20;59.50
12849;DHT22;6493;50.928;7.172;2022-12-18T06:15:20;-8.20;59.60
12849;DHT22;6493;50.928;7.172;2022-12-18T06:21:57;-8.30;59.70
12849;DHT22;6493;50.928;7.172;2022-12-18T06:28:35;-8.30;59.80
12849;DHT22;6493;50.928;7.172;2022-12-18T06:35:12;-8.30;60.10
12849;DHT22;6493;50.928;7.172;2022-12-18T06:41:49;-8.30;60.40
12849;DHT22;6493;50.928;7.172;2022-12-18T06:48:28;-8.20;60.30
12849;DHT22;6493;50.928;7.172;2022-12-18T06:55:06;-8.20;60.20
12849;DHT22;6493;50.928;7.172;2022-12-18T07:01:44;-8.20;59.90
12849;DHT22;6493;50.928;7.172;2022-12-18T07:08:24;-8.30;59.90
12849;DHT22;6493;50.928;7.172;2022-12-18T07:15:01;-8.30;60.10
12849;DHT22;6493;50.928;7.172;2022-12-18T07:21:39;-8.20;60.30
12849;DHT22;6493;50.928;7.172;2022-12-18T07:28:18;-8.20;60.40
12849;DHT22;6493;50.928;7.172;2022-12-18T07:34:55;-8.20;60.20
12849;DHT22;6493;50.928;7.172;2022-12-18T07:41:33;-8.10;60.30
12849;DHT22;6493;50.928;7.172;2022-12-18T07:48:12;-8.00;60.40
12849;DHT22;6493;50.928;7.172;2022-12-18T07:54:49;-8.00;60.50
12849;DHT22;6493;50.928;7.172;2022-12-18T08:01:26;-7.90;60.50
12849;DHT22;6493;50.928;7.172;2022-12-18T08:08:05;-7.70;60.30
12849;DHT22;6493;50.928;7.172;2022-12-18T08:14:42;-7.50;60.50
12849;DHT22;6493;50.928;7.172;2022-12-18T08:21:20;-7.20;59.80
12849;DHT22;6493;50.928;7.172;2022-12-18T08:28:00;-7.00;59.30
12849;DHT22;6493;50.928;7.172;2022-12-18T08:34:37;-6.70;59.30
12849;DHT22;6493;50.928;7.172;2022-12-18T08:41:15;-6.50;58.80
12849;DHT22;6493;50.928;7.172;2022-12-18T08:47:54;-6.10;58.90
12849;DHT22;6493;50.928;7.172;2022-12-18T08:54:32;-5.40;58.30
12849;DHT22;6493;50.928;7.172;2022-12-18T09:01:10;-4.80;58.30
12849;DHT22;6493;50.928;7.172;2022-12-18T09:07:49;-4.20;58.50
12849;DHT22;6493;50.928;7.172;2022-12-18T09:14:05;-3.70;56.30
12849;DHT22;6493;50.928;7.172;2022-12-18T09:20:23;-3.30;55.70
12849;DHT22;6493;50.928;7.172;2022-12-18T09:26:41;-3.10;54.90
12849;DHT22;6493;50.928;7.172;2022-12-18T09:32:59;-3.20;53.80
12849;DHT22;6493;50.928;7.172;2022-12-18T09:39:15;-3.30;53.30
12849;DHT22;6493;50.928;7.172;2022-12-18T09:45:41;-3.40;53.60
12849;DHT22;6493;50.928;7.172;2022-12-18T09:50:46;-3.40;52.60
12849;DHT22;6493;50.928;7.172;2022-12-18T09:55:51;-3.40;53.30
12849;DHT22;6493;50.928;7.172;2022-12-18T10:00:58;-3.50;53.20
12849;DHT22;6493;50.928;7.172;2022-12-18T10:06:06;-3.50;53.60
12849;DHT22;6493;50.928;7.172;2022-12-18T10:11:24;-3.60;53.50
12849;DHT22;6493;50.928;7.172;2022-12-18T10:16:37;-3.80;52.90
12849;DHT22;6493;50.928;7.172;2022-12-18T10:21:48;-3.90;53.30
12849;DHT22;6493;50.928;7.172;2022-12-18T10:26:56;-4.00;54.50
12849;DHT22;6493;50.928;7.172;2022-12-18T10:32:06;-4.10;54.20
12849;DHT22;6493;50.928;7.172;2022-12-18T10:37:15;-4.00;54.20
12849;DHT22;6493;50.928;7.172;2022-12-18T10:42:19;-4.00;54.50
12849;DHT22;6493;50.928;7.172;2022-12-18T10:47:24;-4.00;55.10
12849;DHT22;6493;50.928;7.172;2022-12-18T10:52:28;-3.90;54.80
12849;DHT22;6493;50.928;7.172;2022-12-18T10:57:34;-3.90;54.90
12849;DHT22;6493;50.928;7.172;2022-12-18T11:02:40;-3.80;54.60
12849;DHT22;6493;50.928;7.172;2022-12-18T11:07:48;-3.70;54.90
12849;DHT22;6493;50.928;7.172;2022-12-18T11:12:52;-3.70;53.60
12849;DHT22;6493;50.928;7.172;2022-12-18T11:17:57;-3.70;53.90
12849;DHT22;6493;50.928;7.172;2022-12-18T11:23:04;-3.70;53.40
12849;DHT22;6493;50.928;7.172;2022-12-18T11:28:33;-3.70;53.80
12849;DHT22;6493;50.928;7.172;2022-12-18T11:33:42;-3.80;53.80
12849;DHT22;6493;50.928;7.172;2022-12-18T11:39:12;-3.80;54.00
12849;DHT22;6493;50.928;7.172;2022-12-18T11:44:24;-3.80;53.60
12849;DHT22;6493;50.928;7.172;2022-12-18T11:49:33;-3.80;53.70
12849;DHT22;6493;50.928;7.172;2022-12-18T11:54:37;-3.90;53.60
12849;DHT22;6493;50.928;7.172;2022-12-18T11:59:47;-4.00;53.50
12849;DHT22;6493;50.928;7.172;2022-12-18T12:05:17;-4.00;54.00
12849;DHT22;6493;50.928;7.172;2022-12-18T12:10:36;-4.00;53.90
12849;DHT22;6493;50.928;7.172;2022-12-18T12:15:46;-4.10;53.80
12849;DHT22;6493;50.928;7.172;2022-12-18T12:20:59;-4.20;53.90
12849;DHT22;6493;50.928;7.172;2022-12-18T12:26:06;-4.20;54.10
12849;DHT22;6493;50.928;7.172;2022-12-18T12:31:17;-4.30;54.00
12849;DHT22;6493;50.928;7.172;2022-12-18T12:36:34;-4.40;54.30
12849;DHT22;6493;50.928;7.172;2022-12-18T12:41:45;-4.50;54.50
12849;DHT22;6493;50.928;7.172;2022-12-18T12:47:13;-4.50;54.50
12849;DHT22;6493;50.928;7.172;2022-12-18T12:52:27;-4.60;54.70
12849;DHT22;6493;50.928;7.172;2022-12-18T12:57:35;-4.70;54.50
12849;DHT22;6493;50.928;7.172;2022-12-18T13:02:46;-4.80;54.80
12849;DHT22;6493;50.928;7.172;2022-12-18T13:07:55;-4.80;54.80
12849;DHT22;6493;50.928;7.172;2022-12-18T13:13:02;-4.80;55.10
12849;DHT22;6493;50.928;7.172;2022-12-18T13:18:17;-4.80;55.20
12849;DHT22;6493;50.928;7.172;2022-12-18T13:23:32;-4.90;55.10
12849;DHT22;6493;50.928;7.172;2022-12-18T13:28:53;-5.00;54.80
12849;DHT22;6493;50.928;7.172;2022-12-18T13:34:14;-5.00;55.60
12849;DHT22;6493;50.928;7.172;2022-12-18T13:39:34;-5.00;55.40
12849;DHT22;6493;50.928;7.172;2022-12-18T13:44:39;-4.90;55.50
12849;DHT22;6493;50.928;7.172;2022-12-18T13:49:44;-4.90;55.40
12849;DHT22;6493;50.928;7.172;2022-12-18T13:54:52;-4.80;55.50
12849;DHT22;6493;50.928;7.172;2022-12-18T13:59:57;-4.80;55.70
12849;DHT22;6493;50.928;7.172;2022-12-18T14:05:01;-4.80;55.70
12849;DHT22;6493;50.928;7.172;2022-12-18T14:10:13;-4.80;55.40
12849;DHT22;6493;50.928;7.172;2022-12-18T14:15:41;-4.80;55.50
12849;DHT22;6493;50.928;7.172;2022-12-18T14:20:45;-4.80;55.60
12849;DHT22;6493;50.928;7.172;2022-12-18T14:25:56;-4.80;55.30
12849;DHT22;6493;50.928;7.172;2022-12-18T14:31:17;-4.90;55.30
12849;DHT22;6493;50.928;7.172;2022-12-18T14:36:23;-4.90;55.00
12849;DHT22;6493;50.928;7.172;2022-12-18T14:41:28;-4.90;55.40
12849;DHT22;6493;50.928;7.172;2022-12-18T14:46:35;-5.00;55.30
12849;DHT22;6493;50.928;7.172;2022-12-18T14:51:41;-5.00;55.50
12849;DHT22;6493;50.928;7.172;2022-12-18T14:56:54;-5.00;55.20
12849;DHT22;6493;50.928;7.172;2022-12-18T15:02:04;-5.00;55.40
12849;DHT22;6493;50.928;7.172;2022-12-18T15:07:18;-5.00;55.30
12849;DHT22;6493;50.928;7.172;2022-12-18T15:12:32;-5.10;55.30
12849;DHT22;6493;50.928;7.172;2022-12-18T15:17:36;-5.10;55.40
12849;DHT22;6493;50.928;7.172;2022-12-18T15:22:40;-5.10;55.40
12849;DHT22;6493;50.928;7.172;2022-12-18T15:27:46;-5.20;55.20
12849;DHT22;6493;50.928;7.172;2022-12-18T15:32:51;-5.20;55.30
12849;DHT22;6493;50.928;7.172;2022-12-18T15:37:56;-5.20;55.50
12849;DHT22;6493;50.928;7.172;2022-12-18T15:43:01;-5.30;55.50
12849;DHT22;6493;50.928;7.172;2022-12-18T15:48:25;-5.30;55.80
12849;DHT22;6493;50.928;7.172;2022-12-18T15:53:31;-5.30;55.80
12849;DHT22;6493;50.928;7.172;2022-12-18T15:58:37;-5.40;56.20
12849;DHT22;6493;50.928;7.172;2022-12-18T16:03:41;-5.40;56.50
12849;DHT22;6493;50.928;7.172;2022-12-18T16:08:46;-5.40;56.60
12849;DHT22;6493;50.928;7.172;2022-12-18T16:13:51;-5.40;56.80
12849;DHT22;6493;50.928;7.172;2022-12-18T16:18:55;-5.40;57.10
12849;DHT22;6493;50.928;7.172;2022-12-18T16:23:58;-5.50;57.00
12849;DHT22;6493;50.928;7.172;2022-12-18T16:29:03;-5.50;57.80
12849;DHT22;6493;50.928;7.172;2022-12-18T16:34:18;-5.60;57.50
12849;DHT22;6493;50.928;7.172;2022-12-18T16:39:26;-5.60;57.80
12849;DHT22;6493;50.928;7.172;2022-12-18T16:44:31;-5.60;57.70
12849;DHT22;6493;50.928;7.172;2022-12-18T16:49:35;-5.60;57.80
12849;DHT22;6493;50.928;7.172;2022-12-18T16:54:39;-5.60;57.70
12849;DHT22;6493;50.928;7.172;2022-12-18T16:59:44;-5.70;57.80
12849;DHT22;6493;50.928;7.172;2022-12-18T17:04:48;-5.70;58.00
12849;DHT22;6493;50.928;7.172;2022-12-18T17:09:52;-5.70;58.20
12849;DHT22;6493;50.928;7.172;2022-12-18T17:14:57;-5.80;58.20
12849;DHT22;6493;50.928;7.172;2022-12-18T17:20:01;-5.80;58.30
12849;DHT22;6493;50.928;7.172;2022-12-18T17:25:05;-5.80;58.30
12849;DHT22;6493;50.928;7.172;2022-12-18T17:30:11;-5.80;58.40
12849;DHT22;6493;50.928;7.172;2022-12-18T17:35:15;-5.80;58.40
12849;DHT22;6493;50.928;7.172;2022-12-18T17:40:18;-5.80;58.50
12849;DHT22;6493;50.928;7.172;2022-12-18T17:45:24;-5.80;58.50
12849;DHT22;6493;50.928;7.172;2022-12-18T17:50:27;-5.80;58.40
12849;DHT22;6493;50.928;7.172;2022-12-18T17:55:31;-5.90;58.60
12849;DHT22;6493;50.928;7.172;2022-12-18T18:00:38;-5.90;58.60
12849;DHT22;6493;50.928;7.172;2022-12-18T18:05:42;-6.00;58.80
12849;DHT22;6493;50.928;7.172;2022-12-18T18:10:45;-6.00;58.80
12849;DHT22;6493;50.928;7.172;2022-12-18T18:15:56;-6.00;59.00
12849;DHT22;6493;50.928;7.172;2022-12-18T18:21:06;-6.00;59.00
12849;DHT22;6493;50.928;7.172;2022-12-18T18:26:10;-6.00;59.00
12849;DHT22;6493;50.928;7.172;2022-12-18T18:31:15;-6.00;59.00
12849;DHT22;6493;50.928;7.172;2022-12-18T18:36:19;-6.00;59.20
12849;DHT22;6493;50.928;7.172;2022-12-18T18:41:24;-6.10;59.10
12849;DHT22;6493;50.928;7.172;2022-12-18T18:46:29;-6.00;59.20
12849;DHT22;6493;50.928;7.172;2022-12-18T18:51:33;-6.00;59.20
12849;DHT22;6493;50.928;7.172;2022-12-18T18:56:37;-6.00;59.30
12849;DHT22;6493;50.928;7.172;2022-12-18T19:02:02;-6.00;59.20
12849;DHT22;6493;50.928;7.172;2022-12-18T19:07:06;-6.10;59.20
12849;DHT22;6493;50.928;7.172;2022-12-18T19:12:10;-6.00;59.30
12849;DHT22;6493;50.928;7.172;2022-12-18T19:17:33;-6.00;59.30
12849;DHT22;6493;50.928;7.172;2022-12-18T19:22:39;-6.00;59.20
12849;DHT22;6493;50.928;7.172;2022-12-18T19:27:44;-6.00;59.30
12849;DHT22;6493;50.928;7.172;2022-12-18T19:32:49;-5.90;59.30
12849;DHT22;6493;50.928;7.172;2022-12-18T19:37:53;-5.90;59.30
12849;DHT22;6493;50.928;7.172;2022-12-18T19:42:56;-5.90;59.30
12849;DHT22;6493;50.928;7.172;2022-12-18T19:48:04;-5.90;59.40
12849;DHT22;6493;50.928;7.172;2022-12-18T19:53:08;-5.90;59.50
12849;DHT22;6493;50.928;7.172;2022-12-18T19:58:12;-5.80;59.60
12849;DHT22;6493;50.928;7.172;2022-12-18T20:03:16;-5.80;59.60
12849;DHT22;6493;50.928;7.172;2022-12-18T20:08:31;-5.80;59.70
12849;DHT22;6493;50.928;7.172;2022-12-18T20:13:35;-5.80;59.80
12849;DHT22;6493;50.928;7.172;2022-12-18T20:18:41;-5.70;59.90
12849;DHT22;6493;50.928;7.172;2022-12-18T20:23:45;-5.60;60.00
12849;DHT22;6493;50.928;7.172;2022-12-18T20:28:49;-5.60;59.80
12849;DHT22;6493;50.928;7.172;2022-12-18T20:33:57;-5.50;60.10
12849;DHT22;6493;50.928;7.172;2022-12-18T20:39:03;-5.50;60.20
12849;DHT22;6493;50.928;7.172;2022-12-18T20:44:12;-5.50;60.00
12849;DHT22;6493;50.928;7.172;2022-12-18T20:49:27;-5.40;60.30
12849;DHT22;6493;50.928;7.172;2022-12-18T20:54:30;-5.40;60.20
12849;DHT22;6493;50.928;7.172;2022-12-18T20:59:34;-5.30;60.40
12849;DHT22;6493;50.928;7.172;2022-12-18T21:04:39;-5.30;60.20
12849;DHT22;6493;50.928;7.172;2022-12-18T21:09:43;-5.20;60.30
12849;DHT22;6493;50.928;7.172;2022-12-18T21:14:46;-5.20;60.20
12849;DHT22;6493;50.928;7.172;2022-12-18T21:19:53;-5.20;60.10
12849;DHT22;6493;50.928;7.172;2022-12-18T21:24:56;-5.10;60.30
12849;DHT22;6493;50.928;7.172;2022-12-18T21:30:00;-5.10;60.20
12849;DHT22;6493;50.928;7.172;2022-12-18T21:35:05;-5.00;60.60
12849;DHT22;6493;50.928;7.172;2022-12-18T21:40:10;-5.00;60.70
12849;DHT22;6493;50.928;7.172;2022-12-18T21:45:14;-5.00;61.30
12849;DHT22;6493;50.928;7.172;2022-12-18T21:50:19;-4.90;61.60
12849;DHT22;6493;50.928;7.172;2022-12-18T21:55:23;-4.90;61.80
12849;DHT22;6493;50.928;7.172;2022-12-18T22:00:27;-4.90;62.10
12849;DHT22;6493;50.928;7.172;2022-12-18T22:05:32;-4.80;62.30
12849;DHT22;6493;50.928;7.172;2022-12-18T22:10:36;-4.80;62.80
12849;DHT22;6493;50.928;7.172;2022-12-18T22:15:40;-4.80;63.30
12849;DHT22;6493;50.928;7.172;2022-12-18T22:20:45;-4.80;63.30
12849;DHT22;6493;50.928;7.172;2022-12-18T22:25:48;-4.80;63.60
12849;DHT22;6493;50.928;7.172;2022-12-18T22:30:52;-4.80;64.00
12849;DHT22;6493;50.928;7.172;2022-12-18T22:36:07;-4.70;64.40
12849;DHT22;6493;50.928;7.172;2022-12-18T22:41:10;-4.70;64.70
12849;DHT22;6493;50.928;7.172;2022-12-18T22:46:15;-4.70;64.90
12849;DHT22;6493;50.928;7.172;2022-12-18T22:51:24;-4.60;65.00
12849;DHT22;6493;50.928;7.172;2022-12-18T22:56:27;-4.60;65.00
12849;DHT22;6493;50.928;7.172;2022-12-18T23:01:31;-4.60;65.40
12849;DHT22;6493;50.928;7.172;2022-12-18T23:06:39;-4.60;65.50
12849;DHT22;6493;50.928;7.172;2022-12-18T23:11:43;-4.50;66.30
12849;DHT22;6493;50.928;7.172;2022-12-18T23:16:46;-4.50;66.30
12849;DHT22;6493;50.928;7.172;2022-12-18T23:21:54;-4.50;66.30
12849;DHT22;6493;50.928;7.172;2022-12-18T23:27:00;-4.50;66.50
12849;DHT22;6493;50.928;7.172;2022-12-18T23:32:07;-4.40;66.60
12849;DHT22;6493;50.928;7.172;2022-12-18T23:37:12;-4.40;67.00
12849;DHT22;6493;50.928;7.172;2022-12-18T23:42:35;-4.30;67.20
12849;DHT22;6493;50.928;7.172;2022-12-18T23:47:39;-4.40;67.20
12849;DHT22;6493;50.928;7.172;2022-12-18T23:52:44;-4.30;67.30
12849;DHT22;6493;50.928;7.172;2022-12-18T23:57:47;-4.30;67.50
